Kruzenshtern — UCVK — position and weather

sailwx.info

Track history (hours):
 
Tides and Currents Weather Stations Pressure Air Temp Water Temp Dewpoint Dewpoint Depression Visibility Wind Speed Wind Dir Waves Ship Positions

Kruzenshtern (Russia)

ex-Padua.

Last reported at 2019-Aug-20 05:40 UTC. Time now 2019-Aug-22 10:08 UTC.
Position N 54°42' E 020°28'.

Length 114 m; draft 6 m.

Type: Sailing vessel. MMSI: 273243700.

Date/timePositionNaut miles runAvg speedWind from/ knotsBaromVisibWave heightAir tempDewpointWater temp
2019-Aug-20 05:40N 54°42' E 020°28'0 0.0
2019-Aug-20 05:28N 54°42' E 020°28'0 0.0
2019-Aug-20 04:46N 54°42' E 020°28'1 0.9
2019-Aug-20 04:07N 54°42' E 020°27'0 2.8
2019-Aug-20 03:59N 54°42' E 020°27'2 4.5
2019-Aug-20 03:26N 54°41' E 020°23'4 5.9
2019-Aug-20 02:47N 54°41' E 020°16'2 6.4
2019-Aug-20 02:27N 54°41' E 020°12'3 6.7
2019-Aug-20 02:00N 54°40' E 020°08'4 8.5
2019-Aug-20 01:30N 54°38' E 020°01'4 8.0
2019-Aug-20 01:00N 54°38' E 019°54'4 7.7
2019-Aug-20 00:30N 54°40' E 019°49'3 6.6
2019-Aug-20 00:00N 54°40' E 019°43'3 6.5
2019-Aug-19 23:30N 54°38' E 019°39'2 2.3
2019-Aug-19 22:52N 54°36' E 019°38'1 0.7
2019-Aug-19 21:59N 54°37' E 019°38'0 0.8
2019-Aug-19 21:30N 54°37' E 019°37'0 0.9
2019-Aug-19 20:59N 54°37' E 019°36'0 0.8
2019-Aug-19 20:29N 54°37' E 019°36'0 0.7
2019-Aug-19 20:00N 54°37' E 019°35'4 3.2
2019-Aug-19 18:44N 54°40' E 019°40'0 1.7
2019-Aug-19 18:30N 54°39' E 019°39'1 0.8
2019-Aug-19 17:51N 54°39' E 019°39'0 0.8
2019-Aug-19 17:28N 54°39' E 019°38'0 0.7
2019-Aug-19 17:00N 54°39' E 019°38'0 0.9
2019-Aug-19 16:29N 54°38' E 019°37'1 1.5
2019-Aug-19 16:00N 54°38' E 019°37'1 3.0
2019-Aug-19 15:30N 54°39' E 019°38'1 2.8
2019-Aug-19 14:59N 54°40' E 019°40'1 1.4
2019-Aug-19 14:29N 54°39' E 019°39'0 0.6
2019-Aug-19 14:00N 54°39' E 019°39'0 0.5
2019-Aug-19 13:30N 54°39' E 019°39'1 1.4
2019-Aug-19 13:00N 54°39' E 019°38'3 5.7
2019-Aug-19 12:30N 54°36' E 019°34'1 1.7
2019-Aug-19 12:00N 54°36' E 019°34'0 0.2
2019-Aug-19 10:49N 54°36' E 019°33'1 0.5
2019-Aug-19 07:59N 54°37' E 019°31'0 0.7
2019-Aug-19 07:30N 54°37' E 019°31'2 3.3
2019-Aug-19 07:00N 54°39' E 019°31'4 6.8
2019-Aug-19 06:23N 54°43' E 019°30'3 6.6
2019-Aug-19 05:57N 54°45' E 019°28'5 7.4
2019-Aug-19 05:17N 54°50' E 019°24'2 5.8
2019-Aug-19 05:00N 54°51' E 019°22'3 5.0
2019-Aug-19 04:25N 54°54' E 019°21'2 3.2
2019-Aug-19 03:50N 54°56' E 019°21'0 1.1
2019-Aug-19 03:29N 54°56' E 019°20'1 1.0
2019-Aug-19 02:32N 54°57' E 019°19'0 0.9
2019-Aug-19 02:23N 54°57' E 019°19'1 0.9
2019-Aug-19 01:26N 54°57' E 019°18'1 0.7
2019-Aug-19 00:34N 54°57' E 019°17'0 0.6
2019-Aug-19 00:30N 54°57' E 019°17'0 0.7
2019-Aug-18 23:59N 54°57' E 019°16'0 0.8
2019-Aug-18 23:21N 54°57' E 019°15'0 0.6
2019-Aug-18 23:00N 54°57' E 019°15'0 0.7
2019-Aug-18 22:27N 54°57' E 019°14'0 0.8
2019-Aug-18 22:00N 54°57' E 019°13'0 0.7
2019-Aug-18 21:30N 54°57' E 019°13'0 0.7
2019-Aug-18 20:58N 54°57' E 019°12'0 0.7
2019-Aug-18 20:30N 54°56' E 019°12'5 4.0
2019-Aug-18 19:22N 55°01' E 019°09'0 0.5
2019-Aug-18 18:57N 55°01' E 019°09'31 5.7
2019-Aug-18 13:35N 55°28' E 018°46'2 2.1
2019-Aug-18 12:38N 55°30' E 018°45'0 2.8
2019-Aug-18 12:30N 55°30' E 018°45'12 6.8
2019-Aug-18 10:46N 55°27' E 018°25'12 3.8
2019-Aug-18 07:42N 55°26' E 018°05'5 5.4
2019-Aug-18 06:46N 55°28' E 017°57'2 4.9
2019-Aug-18 06:21N 55°26' E 017°57'1 1.0
2019-Aug-18 05:24N 55°26' E 017°56'1 0.6
2019-Aug-18 03:19N 55°25' E 017°55'0 0.8
2019-Aug-18 02:59N 55°24' E 017°55'0 0.8
2019-Aug-18 02:28N 55°24' E 017°55'0 0.8
2019-Aug-18 02:00N 55°24' E 017°55'0 0.8
2019-Aug-18 01:30N 55°23' E 017°55'0 0.6
2019-Aug-18 01:00N 55°23' E 017°56'1 2.8
2019-Aug-18 00:30N 55°23' E 017°53'6 0.5
2019-Aug-17 14:14N 55°18' E 017°57'3 0.9
2019-Aug-17 11:24N 55°15' E 017°59'0 1.0
2019-Aug-17 10:56N 55°15' E 017°59'1 1.0
2019-Aug-17 10:07N 55°14' E 017°59'3 0.8
2019-Aug-17 06:46N 55°11' E 017°59'0 0.6
2019-Aug-17 06:30N 55°11' E 017°59'0 0.6
2019-Aug-17 05:49N 55°11' E 017°58'0 0.6
2019-Aug-17 05:30N 55°11' E 017°58'1 0.6
2019-Aug-17 04:06N 55°10' E 017°57'0 0.6
2019-Aug-17 03:27N 55°10' E 017°57'177 3.6
2019-Aug-15 02:14N 54°46' E 012°52'2 7.1
2019-Aug-15 02:00N 54°46' E 012°49'4 7.3
2019-Aug-15 01:30N 54°44' E 012°44'3 6.9
2019-Aug-15 01:00N 54°43' E 012°39'4 7.7
2019-Aug-15 00:30N 54°40' E 012°33'4 7.9
2019-Aug-15 00:00N 54°38' E 012°27'8 7.6
2019-Aug-14 22:59N 54°33' E 012°18'4 8.2
2019-Aug-14 22:30N 54°29' E 012°16'9 7.1
2019-Aug-14 21:14N 54°24' E 012°02'2 7.9
2019-Aug-14 21:00N 54°24' E 011°59'4 7.7
2019-Aug-14 20:30N 54°25' E 011°53'38 5.7
2019-Aug-14 13:53N 54°33' E 010°49'2 4.7
2019-Aug-14 13:29N 54°33' E 010°46'2 4.8
2019-Aug-14 13:00N 54°34' E 010°42'2 5.0
2019-Aug-14 12:30N 54°34' E 010°38'4 5.7
2019-Aug-14 11:46N 54°32' E 010°31'2 8.0
2019-Aug-14 11:30N 54°32' E 010°27'4 7.7
2019-Aug-14 11:00N 54°30' E 010°21'4 7.7
2019-Aug-14 10:30N 54°28' E 010°16'510.4
2019-Aug-14 10:00N 54°23' E 010°12'1 1.7
2019-Aug-14 09:28N 54°23' E 010°11'0 0.1
2019-Aug-14 08:58N 54°23' E 010°11'0 0.0
2019-Aug-14 08:01N 54°23' E 010°11'0 0.0
2019-Aug-14 07:43N 54°23' E 010°11'0 0.0
2019-Aug-14 07:28N 54°23' E 010°11'0 0.1
2019-Aug-14 07:00N 54°23' E 010°11'3 6.4
2019-Aug-14 06:30N 54°26' E 010°13'4 9.2
2019-Aug-14 06:00N 54°30' E 010°17'5 7.7
2019-Aug-14 05:24N 54°33' E 010°22'3 4.7
2019-Aug-14 04:46N 54°35' E 010°26'0 0.7
2019-Aug-14 04:24N 54°35' E 010°25'0 0.7
2019-Aug-14 04:00N 54°35' E 010°25'0 0.7
2019-Aug-14 03:26N 54°35' E 010°24'0 0.7
2019-Aug-14 02:58N 54°35' E 010°24'1 1.4
2019-Aug-14 02:30N 54°36' E 010°24'4 7.3
2019-Aug-14 02:00N 54°35' E 010°30'33 6.3
2019-Aug-13 20:45N 54°32' E 011°27'2 6.6
2019-Aug-13 20:30N 54°31' E 011°29'3 6.5
2019-Aug-13 20:00N 54°29' E 011°34'3 6.3
2019-Aug-13 19:30N 54°28' E 011°39'10 6.8
2019-Aug-13 17:59N 54°27' E 011°57'3 6.2
2019-Aug-13 17:30N 54°27' E 012°02'2 3.9
2019-Aug-13 17:00N 54°27' E 012°05'2 4.0
2019-Aug-13 16:29N 54°28' E 012°09'2 5.0
2019-Aug-13 16:00N 54°30' E 012°11'3 6.1
2019-Aug-13 15:30N 54°33' E 012°12'3 6.1
2019-Aug-13 15:00N 54°35' E 012°14'3 5.6
2019-Aug-13 14:30N 54°37' E 012°18'4 5.5
2019-Aug-13 13:44N 54°40' E 012°24'1 5.7
2019-Aug-13 13:30N 54°40' E 012°26'2 4.9
2019-Aug-13 13:00N 54°42' E 012°29'3 5.5
2019-Aug-13 12:30N 54°43' E 012°33'8 0.4
2019-Aug-12 18:44N 54°42' E 012°46'1 4.0
2019-Aug-12 18:30N 54°43' E 012°45'2 3.3
2019-Aug-12 18:00N 54°43' E 012°42'3 4.2
2019-Aug-12 17:14N 54°41' E 012°37'1 4.7
2019-Aug-12 17:00N 54°41' E 012°36'2 4.0
2019-Aug-12 16:30N 54°39' E 012°33'2 3.5
2019-Aug-12 16:00N 54°38' E 012°31'2 3.0
2019-Aug-12 15:29N 54°37' E 012°29'2 3.0
2019-Aug-12 14:45N 54°35' E 012°26'1 3.6
2019-Aug-12 14:30N 54°35' E 012°25'7 3.9
2019-Aug-12 12:44N 54°29' E 012°19'1 4.7
2019-Aug-12 12:30N 54°28' E 012°18'3 5.1
2019-Aug-12 11:58N 54°26' E 012°16'2 5.2
2019-Aug-12 11:30N 54°24' E 012°14'2 4.7
2019-Aug-12 11:00N 54°22' E 012°11'4 5.1
2019-Aug-12 10:10N 54°18' E 012°08'1 3.4
2019-Aug-12 09:49N 54°17' E 012°07'1 4.5
2019-Aug-12 09:30N 54°16' E 012°06'6 4.9
2019-Aug-12 08:22N 54°10' E 012°06'0 0.0
2019-Aug-12 07:46N 54°10' E 012°06'0 0.0
2019-Aug-12 06:58N 54°10' E 012°06'0 0.0
2019-Aug-12 06:29N 54°10' E 012°06'0 0.0
2019-Aug-12 05:40N 54°10' E 012°06'0 0.0
2019-Aug-12 05:28N 54°10' E 012°06'0 0.0
2019-Aug-12 04:58N 54°10' E 012°06'0 0.0
2019-Aug-12 04:25N 54°10' E 012°06'0 0.0
2019-Aug-12 03:58N 54°10' E 012°06'0 0.0
2019-Aug-12 03:28N 54°10' E 012°06'0 0.0
2019-Aug-12 02:58N 54°10' E 012°06'0 0.0
2019-Aug-12 02:28N 54°10' E 012°06'0 0.0
2019-Aug-12 01:58N 54°10' E 012°06'0 0.0
2019-Aug-12 01:28N 54°10' E 012°06'0 0.0
2019-Aug-12 00:58N 54°10' E 012°06'0 0.0
2019-Aug-12 00:25N 54°10' E 012°06'0 0.0
2019-Aug-11 23:55N 54°10' E 012°06'0 0.0
2019-Aug-11 23:26N 54°10' E 012°06'0 0.0
2019-Aug-11 22:58N 54°10' E 012°06'0 0.0
2019-Aug-11 22:25N 54°10' E 012°06'0 0.0
2019-Aug-11 21:55N 54°10' E 012°06'0 0.0
2019-Aug-11 21:28N 54°10' E 012°06'0 0.0
2019-Aug-11 20:58N 54°10' E 012°06'0 0.0
2019-Aug-11 20:28N 54°10' E 012°06'0 0.0
2019-Aug-11 19:58N 54°10' E 012°06'0 0.0
2019-Aug-11 19:25N 54°10' E 012°06'0 0.0
2019-Aug-11 18:55N 54°10' E 012°06'0 0.0
2019-Aug-11 18:25N 54°10' E 012°06'0 0.0
2019-Aug-11 17:55N 54°10' E 012°06'0 0.0
2019-Aug-11 17:22N 54°10' E 012°06'0 0.0
2019-Aug-11 16:52N 54°10' E 012°06'0 0.0
2019-Aug-11 16:25N 54°10' E 012°06'0 0.0
2019-Aug-11 15:55N 54°10' E 012°06'0 0.0
2019-Aug-11 15:25N 54°10' E 012°06'0 0.0
2019-Aug-11 14:58N 54°10' E 012°06'0 0.0
2019-Aug-11 14:28N 54°10' E 012°06'0 0.0
2019-Aug-11 13:58N 54°10' E 012°06'0 0.0
2019-Aug-11 13:27N 54°10' E 012°06'1 1.9
2019-Aug-11 12:59N 54°11' E 012°05'3 7.0
2019-Aug-11 12:30N 54°14' E 012°03'3 5.8
2019-Aug-11 12:00N 54°17' E 012°01'3 5.2
2019-Aug-11 11:24N 54°20' E 012°01'1 2.5
2019-Aug-11 10:53N 54°19' E 012°03'1 2.0
2019-Aug-11 10:30N 54°19' E 012°04'1 2.1
2019-Aug-11 09:57N 54°17' E 012°04'1 3.1
2019-Aug-11 09:29N 54°16' E 012°05'2 4.1
2019-Aug-11 09:00N 54°14' E 012°05'2 3.0
2019-Aug-11 08:30N 54°13' E 012°05'2 4.7
2019-Aug-11 07:58N 54°10' E 012°06'0 0.0
2019-Aug-11 07:25N 54°10' E 012°06'0 0.0
2019-Aug-11 06:55N 54°10' E 012°06'0 0.0
2019-Aug-11 06:28N 54°10' E 012°06'0 0.0
2019-Aug-11 05:55N 54°10' E 012°06'0 0.0
2019-Aug-11 05:25N 54°10' E 012°06'0 0.0
2019-Aug-11 04:55N 54°10' E 012°06'0 0.0
2019-Aug-11 04:28N 54°10' E 012°06'0 0.0
2019-Aug-11 03:58N 54°10' E 012°06'0 0.0
2019-Aug-11 03:28N 54°10' E 012°06'0 0.0
2019-Aug-11 02:55N 54°10' E 012°06'0 0.0
2019-Aug-11 02:25N 54°10' E 012°06'0 0.0
2019-Aug-11 01:55N 54°10' E 012°06'0 0.0
2019-Aug-11 01:25N 54°10' E 012°06'0 0.0
2019-Aug-11 00:55N 54°10' E 012°06'0 0.0
2019-Aug-11 00:28N 54°10' E 012°06'0 0.0
2019-Aug-10 23:55N 54°10' E 012°06'0 0.0
2019-Aug-10 23:25N 54°10' E 012°06'0 0.0
2019-Aug-10 22:55N 54°10' E 012°06'0 0.0
2019-Aug-10 22:25N 54°10' E 012°06'0 0.0
2019-Aug-10 21:58N 54°10' E 012°06'0 0.0
2019-Aug-10 21:28N 54°10' E 012°06'0 1.0
2019-Aug-10 21:00N 54°11' E 012°06'2 4.9
2019-Aug-10 20:30N 54°13' E 012°04'5 4.5
2019-Aug-10 19:19N 54°18' E 012°02'2 6.5
2019-Aug-10 19:00N 54°17' E 012°04'2 3.3
2019-Aug-10 18:30N 54°15' E 012°05'1 2.7
2019-Aug-10 18:00N 54°14' E 012°05'1 2.1
2019-Aug-10 17:29N 54°13' E 012°05'2 4.7
2019-Aug-10 16:58N 54°10' E 012°06'0 0.0
2019-Aug-10 16:28N 54°10' E 012°06'0 0.0
2019-Aug-10 15:55N 54°10' E 012°06'0 0.0
2019-Aug-10 15:25N 54°10' E 012°06'0 0.0
2019-Aug-10 14:58N 54°10' E 012°06'0 0.0
2019-Aug-10 14:25N 54°10' E 012°06'0 0.0
2019-Aug-10 14:00N 54°10' E 012°06'1 2.2
2019-Aug-10 13:30N 54°11' E 012°05'2 3.5
2019-Aug-10 13:00N 54°13' E 012°04'2 4.4
2019-Aug-10 12:30N 54°15' E 012°03'2 3.8
2019-Aug-10 12:00N 54°17' E 012°02'2 4.2
2019-Aug-10 11:30N 54°17' E 012°05'1 1.3
2019-Aug-10 11:00N 54°16' E 012°05'1 1.2
2019-Aug-10 10:30N 54°16' E 012°05'1 1.4
2019-Aug-10 09:55N 54°15' E 012°05'1 1.7
2019-Aug-10 09:29N 54°14' E 012°05'1 2.7
2019-Aug-10 08:59N 54°13' E 012°05'3 5.6
2019-Aug-10 08:28N 54°10' E 012°06'0 0.0
2019-Aug-10 07:58N 54°10' E 012°06'0 0.0
2019-Aug-10 07:19N 54°10' E 012°06'0 0.0
2019-Aug-10 06:58N 54°10' E 012°06'0 0.0
2019-Aug-10 06:28N 54°10' E 012°06'  
Track history (hours):
 
Tides and Currents Weather Stations Pressure Air Temp Water Temp Dewpoint Dewpoint Depression Visibility Wind Speed Wind Dir Waves Ship Positions

Kruzenshtern (Russia)

ex-Padua.

Last reported at 2019-Aug-20 05:40 UTC. Time now 2019-Aug-22 10:08 UTC.
Position N 54°42' E 020°28'.

Length 114 m; draft 6 m.

Type: Sailing vessel. MMSI: 273243700.

Date/timePositionNaut miles runAvg speedWind from/ knotsBaromVisibWave heightAir tempDewpointWater temp
2019-Aug-20 05:40N 54°42' E 020°28'0 0.0
2019-Aug-20 05:28N 54°42' E 020°28'0 0.0
2019-Aug-20 04:46N 54°42' E 020°28'1 0.9
2019-Aug-20 04:07N 54°42' E 020°27'0 2.8
2019-Aug-20 03:59N 54°42' E 020°27'2 4.5
2019-Aug-20 03:26N 54°41' E 020°23'4 5.9
2019-Aug-20 02:47N 54°41' E 020°16'2 6.4
2019-Aug-20 02:27N 54°41' E 020°12'3 6.7
2019-Aug-20 02:00N 54°40' E 020°08'4 8.5
2019-Aug-20 01:30N 54°38' E 020°01'4 8.0
2019-Aug-20 01:00N 54°38' E 019°54'4 7.7
2019-Aug-20 00:30N 54°40' E 019°49'3 6.6
2019-Aug-20 00:00N 54°40' E 019°43'3 6.5
2019-Aug-19 23:30N 54°38' E 019°39'2 2.3
2019-Aug-19 22:52N 54°36' E 019°38'1 0.7
2019-Aug-19 21:59N 54°37' E 019°38'0 0.8
2019-Aug-19 21:30N 54°37' E 019°37'0 0.9
2019-Aug-19 20:59N 54°37' E 019°36'0 0.8
2019-Aug-19 20:29N 54°37' E 019°36'0 0.7
2019-Aug-19 20:00N 54°37' E 019°35'4 3.2
2019-Aug-19 18:44N 54°40' E 019°40'0 1.7
2019-Aug-19 18:30N 54°39' E 019°39'1 0.8
2019-Aug-19 17:51N 54°39' E 019°39'0 0.8
2019-Aug-19 17:28N 54°39' E 019°38'0 0.7
2019-Aug-19 17:00N 54°39' E 019°38'0 0.9
2019-Aug-19 16:29N 54°38' E 019°37'1 1.5
2019-Aug-19 16:00N 54°38' E 019°37'1 3.0
2019-Aug-19 15:30N 54°39' E 019°38'1 2.8
2019-Aug-19 14:59N 54°40' E 019°40'1 1.4
2019-Aug-19 14:29N 54°39' E 019°39'0 0.6
2019-Aug-19 14:00N 54°39' E 019°39'0 0.5
2019-Aug-19 13:30N 54°39' E 019°39'1 1.4
2019-Aug-19 13:00N 54°39' E 019°38'3 5.7
2019-Aug-19 12:30N 54°36' E 019°34'1 1.7
2019-Aug-19 12:00N 54°36' E 019°34'0 0.2
2019-Aug-19 10:49N 54°36' E 019°33'1 0.5
2019-Aug-19 07:59N 54°37' E 019°31'0 0.7
2019-Aug-19 07:30N 54°37' E 019°31'2 3.3
2019-Aug-19 07:00N 54°39' E 019°31'4 6.8
2019-Aug-19 06:23N 54°43' E 019°30'3 6.6
2019-Aug-19 05:57N 54°45' E 019°28'5 7.4
2019-Aug-19 05:17N 54°50' E 019°24'2 5.8
2019-Aug-19 05:00N 54°51' E 019°22'3 5.0
2019-Aug-19 04:25N 54°54' E 019°21'2 3.2
2019-Aug-19 03:50N 54°56' E 019°21'0 1.1
2019-Aug-19 03:29N 54°56' E 019°20'1 1.0
2019-Aug-19 02:32N 54°57' E 019°19'0 0.9
2019-Aug-19 02:23N 54°57' E 019°19'1 0.9
2019-Aug-19 01:26N 54°57' E 019°18'1 0.7
2019-Aug-19 00:34N 54°57' E 019°17'0 0.6
2019-Aug-19 00:30N 54°57' E 019°17'0 0.7
2019-Aug-18 23:59N 54°57' E 019°16'0 0.8
2019-Aug-18 23:21N 54°57' E 019°15'0 0.6
2019-Aug-18 23:00N 54°57' E 019°15'0 0.7
2019-Aug-18 22:27N 54°57' E 019°14'0 0.8
2019-Aug-18 22:00N 54°57' E 019°13'0 0.7
2019-Aug-18 21:30N 54°57' E 019°13'0 0.7
2019-Aug-18 20:58N 54°57' E 019°12'0 0.7
2019-Aug-18 20:30N 54°56' E 019°12'5 4.0
2019-Aug-18 19:22N 55°01' E 019°09'0 0.5
2019-Aug-18 18:57N 55°01' E 019°09'31 5.7
2019-Aug-18 13:35N 55°28' E 018°46'2 2.1
2019-Aug-18 12:38N 55°30' E 018°45'0 2.8
2019-Aug-18 12:30N 55°30' E 018°45'12 6.8
2019-Aug-18 10:46N 55°27' E 018°25'12 3.8
2019-Aug-18 07:42N 55°26' E 018°05'5 5.4
2019-Aug-18 06:46N 55°28' E 017°57'2 4.9
2019-Aug-18 06:21N 55°26' E 017°57'1 1.0
2019-Aug-18 05:24N 55°26' E 017°56'1 0.6
2019-Aug-18 03:19N 55°25' E 017°55'0 0.8
2019-Aug-18 02:59N 55°24' E 017°55'0 0.8
2019-Aug-18 02:28N 55°24' E 017°55'0 0.8
2019-Aug-18 02:00N 55°24' E 017°55'0 0.8
2019-Aug-18 01:30N 55°23' E 017°55'0 0.6
2019-Aug-18 01:00N 55°23' E 017°56'1 2.8
2019-Aug-18 00:30N 55°23' E 017°53'6 0.5
2019-Aug-17 14:14N 55°18' E 017°57'3 0.9
2019-Aug-17 11:24N 55°15' E 017°59'0 1.0
2019-Aug-17 10:56N 55°15' E 017°59'1 1.0
2019-Aug-17 10:07N 55°14' E 017°59'3 0.8
2019-Aug-17 06:46N 55°11' E 017°59'0 0.6
2019-Aug-17 06:30N 55°11' E 017°59'0 0.6
2019-Aug-17 05:49N 55°11' E 017°58'0 0.6
2019-Aug-17 05:30N 55°11' E 017°58'1 0.6
2019-Aug-17 04:06N 55°10' E 017°57'0 0.6
2019-Aug-17 03:27N 55°10' E 017°57'177 3.6
2019-Aug-15 02:14N 54°46' E 012°52'2 7.1
2019-Aug-15 02:00N 54°46' E 012°49'4 7.3
2019-Aug-15 01:30N 54°44' E 012°44'3 6.9
2019-Aug-15 01:00N 54°43' E 012°39'4 7.7
2019-Aug-15 00:30N 54°40' E 012°33'4 7.9
2019-Aug-15 00:00N 54°38' E 012°27'8 7.6
2019-Aug-14 22:59N 54°33' E 012°18'4 8.2
2019-Aug-14 22:30N 54°29' E 012°16'9 7.1
2019-Aug-14 21:14N 54°24' E 012°02'2 7.9
2019-Aug-14 21:00N 54°24' E 011°59'4 7.7
2019-Aug-14 20:30N 54°25' E 011°53'38 5.7
2019-Aug-14 13:53N 54°33' E 010°49'2 4.7
2019-Aug-14 13:29N 54°33' E 010°46'2 4.8
2019-Aug-14 13:00N 54°34' E 010°42'2 5.0
2019-Aug-14 12:30N 54°34' E 010°38'4 5.7
2019-Aug-14 11:46N 54°32' E 010°31'2 8.0
2019-Aug-14 11:30N 54°32' E 010°27'4 7.7
2019-Aug-14 11:00N 54°30' E 010°21'4 7.7
2019-Aug-14 10:30N 54°28' E 010°16'510.4
2019-Aug-14 10:00N 54°23' E 010°12'1 1.7
2019-Aug-14 09:28N 54°23' E 010°11'0 0.1
2019-Aug-14 08:58N 54°23' E 010°11'0 0.0
2019-Aug-14 08:01N 54°23' E 010°11'0 0.0
2019-Aug-14 07:43N 54°23' E 010°11'0 0.0
2019-Aug-14 07:28N 54°23' E 010°11'0 0.1
2019-Aug-14 07:00N 54°23' E 010°11'3 6.4
2019-Aug-14 06:30N 54°26' E 010°13'4 9.2
2019-Aug-14 06:00N 54°30' E 010°17'5 7.7
2019-Aug-14 05:24N 54°33' E 010°22'3 4.7
2019-Aug-14 04:46N 54°35' E 010°26'0 0.7
2019-Aug-14 04:24N 54°35' E 010°25'0 0.7
2019-Aug-14 04:00N 54°35' E 010°25'0 0.7
2019-Aug-14 03:26N 54°35' E 010°24'0 0.7
2019-Aug-14 02:58N 54°35' E 010°24'1 1.4
2019-Aug-14 02:30N 54°36' E 010°24'4 7.3
2019-Aug-14 02:00N 54°35' E 010°30'33 6.3
2019-Aug-13 20:45N 54°32' E 011°27'2 6.6
2019-Aug-13 20:30N 54°31' E 011°29'3 6.5
2019-Aug-13 20:00N 54°29' E 011°34'3 6.3
2019-Aug-13 19:30N 54°28' E 011°39'10 6.8
2019-Aug-13 17:59N 54°27' E 011°57'3 6.2
2019-Aug-13 17:30N 54°27' E 012°02'2 3.9
2019-Aug-13 17:00N 54°27' E 012°05'2 4.0
2019-Aug-13 16:29N 54°28' E 012°09'2 5.0
2019-Aug-13 16:00N 54°30' E 012°11'3 6.1
2019-Aug-13 15:30N 54°33' E 012°12'3 6.1
2019-Aug-13 15:00N 54°35' E 012°14'3 5.6
2019-Aug-13 14:30N 54°37' E 012°18'4 5.5
2019-Aug-13 13:44N 54°40' E 012°24'1 5.7
2019-Aug-13 13:30N 54°40' E 012°26'2 4.9
2019-Aug-13 13:00N 54°42' E 012°29'3 5.5
2019-Aug-13 12:30N 54°43' E 012°33'8 0.4
2019-Aug-12 18:44N 54°42' E 012°46'1 4.0
2019-Aug-12 18:30N 54°43' E 012°45'2 3.3
2019-Aug-12 18:00N 54°43' E 012°42'3 4.2
2019-Aug-12 17:14N 54°41' E 012°37'1 4.7
2019-Aug-12 17:00N 54°41' E 012°36'2 4.0
2019-Aug-12 16:30N 54°39' E 012°33'2 3.5
2019-Aug-12 16:00N 54°38' E 012°31'2 3.0
2019-Aug-12 15:29N 54°37' E 012°29'2 3.0
2019-Aug-12 14:45N 54°35' E 012°26'1 3.6
2019-Aug-12 14:30N 54°35' E 012°25'7 3.9
2019-Aug-12 12:44N 54°29' E 012°19'1 4.7
2019-Aug-12 12:30N 54°28' E 012°18'3 5.1
2019-Aug-12 11:58N 54°26' E 012°16'2 5.2
2019-Aug-12 11:30N 54°24' E 012°14'2 4.7
2019-Aug-12 11:00N 54°22' E 012°11'4 5.1
2019-Aug-12 10:10N 54°18' E 012°08'1 3.4
2019-Aug-12 09:49N 54°17' E 012°07'1 4.5
2019-Aug-12 09:30N 54°16' E 012°06'6 4.9
2019-Aug-12 08:22N 54°10' E 012°06'0 0.0
2019-Aug-12 07:46N 54°10' E 012°06'0 0.0
2019-Aug-12 06:58N 54°10' E 012°06'0 0.0
2019-Aug-12 06:29N 54°10' E 012°06'0 0.0
2019-Aug-12 05:40N 54°10' E 012°06'0 0.0
2019-Aug-12 05:28N 54°10' E 012°06'0 0.0
2019-Aug-12 04:58N 54°10' E 012°06'0 0.0
2019-Aug-12 04:25N 54°10' E 012°06'0 0.0
2019-Aug-12 03:58N 54°10' E 012°06'0 0.0
2019-Aug-12 03:28N 54°10' E 012°06'0 0.0
2019-Aug-12 02:58N 54°10' E 012°06'0 0.0
2019-Aug-12 02:28N 54°10' E 012°06'0 0.0
2019-Aug-12 01:58N 54°10' E 012°06'0 0.0
2019-Aug-12 01:28N 54°10' E 012°06'0 0.0
2019-Aug-12 00:58N 54°10' E 012°06'0 0.0
2019-Aug-12 00:25N 54°10' E 012°06'0 0.0
2019-Aug-11 23:55N 54°10' E 012°06'0 0.0
2019-Aug-11 23:26N 54°10' E 012°06'0 0.0
2019-Aug-11 22:58N 54°10' E 012°06'0 0.0
2019-Aug-11 22:25N 54°10' E 012°06'0 0.0
2019-Aug-11 21:55N 54°10' E 012°06'0 0.0
2019-Aug-11 21:28N 54°10' E 012°06'0 0.0
2019-Aug-11 20:58N 54°10' E 012°06'0 0.0
2019-Aug-11 20:28N 54°10' E 012°06'0 0.0
2019-Aug-11 19:58N 54°10' E 012°06'0 0.0
2019-Aug-11 19:25N 54°10' E 012°06'0 0.0
2019-Aug-11 18:55N 54°10' E 012°06'0 0.0
2019-Aug-11 18:25N 54°10' E 012°06'0 0.0
2019-Aug-11 17:55N 54°10' E 012°06'0 0.0
2019-Aug-11 17:22N 54°10' E 012°06'0 0.0
2019-Aug-11 16:52N 54°10' E 012°06'0 0.0
2019-Aug-11 16:25N 54°10' E 012°06'0 0.0
2019-Aug-11 15:55N 54°10' E 012°06'0 0.0
2019-Aug-11 15:25N 54°10' E 012°06'0 0.0
2019-Aug-11 14:58N 54°10' E 012°06'0 0.0
2019-Aug-11 14:28N 54°10' E 012°06'0 0.0
2019-Aug-11 13:58N 54°10' E 012°06'0 0.0
2019-Aug-11 13:27N 54°10' E 012°06'1 1.9
2019-Aug-11 12:59N 54°11' E 012°05'3 7.0
2019-Aug-11 12:30N 54°14' E 012°03'3 5.8
2019-Aug-11 12:00N 54°17' E 012°01'3 5.2
2019-Aug-11 11:24N 54°20' E 012°01'1 2.5
2019-Aug-11 10:53N 54°19' E 012°03'1 2.0
2019-Aug-11 10:30N 54°19' E 012°04'1 2.1
2019-Aug-11 09:57N 54°17' E 012°04'1 3.1
2019-Aug-11 09:29N 54°16' E 012°05'2 4.1
2019-Aug-11 09:00N 54°14' E 012°05'2 3.0
2019-Aug-11 08:30N 54°13' E 012°05'2 4.7
2019-Aug-11 07:58N 54°10' E 012°06'0 0.0
2019-Aug-11 07:25N 54°10' E 012°06'0 0.0
2019-Aug-11 06:55N 54°10' E 012°06'0 0.0
2019-Aug-11 06:28N 54°10' E 012°06'0 0.0
2019-Aug-11 05:55N 54°10' E 012°06'0 0.0
2019-Aug-11 05:25N 54°10' E 012°06'0 0.0
2019-Aug-11 04:55N 54°10' E 012°06'0 0.0
2019-Aug-11 04:28N 54°10' E 012°06'0 0.0
2019-Aug-11 03:58N 54°10' E 012°06'0 0.0
2019-Aug-11 03:28N 54°10' E 012°06'0 0.0
2019-Aug-11 02:55N 54°10' E 012°06'0 0.0
2019-Aug-11 02:25N 54°10' E 012°06'0 0.0
2019-Aug-11 01:55N 54°10' E 012°06'0 0.0
2019-Aug-11 01:25N 54°10' E 012°06'0 0.0
2019-Aug-11 00:55N 54°10' E 012°06'0 0.0
2019-Aug-11 00:28N 54°10' E 012°06'0 0.0
2019-Aug-10 23:55N 54°10' E 012°06'0 0.0
2019-Aug-10 23:25N 54°10' E 012°06'0 0.0
2019-Aug-10 22:55N 54°10' E 012°06'0 0.0
2019-Aug-10 22:25N 54°10' E 012°06'0 0.0
2019-Aug-10 21:58N 54°10' E 012°06'0 0.0
2019-Aug-10 21:28N 54°10' E 012°06'0 1.0
2019-Aug-10 21:00N 54°11' E 012°06'2 4.9
2019-Aug-10 20:30N 54°13' E 012°04'5 4.5
2019-Aug-10 19:19N 54°18' E 012°02'2 6.5
2019-Aug-10 19:00N 54°17' E 012°04'2 3.3
2019-Aug-10 18:30N 54°15' E 012°05'1 2.7
2019-Aug-10 18:00N 54°14' E 012°05'1 2.1
2019-Aug-10 17:29N 54°13' E 012°05'2 4.7
2019-Aug-10 16:58N 54°10' E 012°06'0 0.0
2019-Aug-10 16:28N 54°10' E 012°06'0 0.0
2019-Aug-10 15:55N 54°10' E 012°06'0 0.0
2019-Aug-10 15:25N 54°10' E 012°06'0 0.0
2019-Aug-10 14:58N 54°10' E 012°06'0 0.0
2019-Aug-10 14:25N 54°10' E 012°06'0 0.0
2019-Aug-10 14:00N 54°10' E 012°06'1 2.2
2019-Aug-10 13:30N 54°11' E 012°05'2 3.5
2019-Aug-10 13:00N 54°13' E 012°04'2 4.4
2019-Aug-10 12:30N 54°15' E 012°03'2 3.8
2019-Aug-10 12:00N 54°17' E 012°02'2 4.2
2019-Aug-10 11:30N 54°17' E 012°05'1 1.3
2019-Aug-10 11:00N 54°16' E 012°05'1 1.2
2019-Aug-10 10:30N 54°16' E 012°05'1 1.4
2019-Aug-10 09:55N 54°15' E 012°05'1 1.7
2019-Aug-10 09:29N 54°14' E 012°05'1 2.7
2019-Aug-10 08:59N 54°13' E 012°05'3 5.6
2019-Aug-10 08:28N 54°10' E 012°06'0 0.0
2019-Aug-10 07:58N 54°10' E 012°06'0 0.0
2019-Aug-10 07:19N 54°10' E 012°06'0 0.0
2019-Aug-10 06:58N 54°10' E 012°06'0 0.0
2019-Aug-10 06:28N 54°10' E 012°06'  

Dump ship's entire track history